Airfield :
LOGIN :

Register | Disclaimer

   EN    FR    IT 

 










Legend :    VFR   Marginal VFR   IFR   Intensive IFR   Very Intensive IFR
Visi :
Ceiling :
>= 8 km
>= 3000ft
5 to 8 km
1000 to 3000 ft
1500m to 5 km
500 to 1000 ft
800 to 1500m
200 to 500 ft
< 800m
< 200 ft
Symbols :   Thunderstorms  Fog  Heavy snow  Heavy precipitations  Wind > 20 kt
SIGMETs :     Misc.  Thunderstorms  Icing  Turbulence  Mountain Waves  Volcanic Ashes






- Airport Elevation : 117 ft
- IATA code : NWI


EGSH - Norwich

CURRENT METAR :
  • 291220Z 18008KT 120V230 9999 SCT037 22/11 Q1012 NOSIG

EXPIRED METARs :
  • 291150Z 15011KT 090V220 9999 FEW030 23/12 Q1012 NOSIG
  • 291120Z 16010KT 090V220 9999 FEW030 22/12 Q1012 NOSIG
  • 291050Z 16005KT 070V240 CAVOK 20/12 Q1013
  • 291020Z 18004KT 100V230 CAVOK 18/12 Q1013
  • 290950Z 17006KT 120V220 9999 FEW015 17/11 Q1013

TAF TAF EGSH
Valid from the 29 at 12:00 until the 29 at 21:00 UTC


291058Z 2912/2921 18008KT 9999 SCT025
PROB30
TEMPO 2914/2917 7000 SHRA
ATIS : +44 1603 420 640



MET'MAP, your aeronautical weather chart ! - Copyright ORBIFLY December 2007 - Disclaimer

ORBIFLY MET'MAP TEAM :

Programming & Development : Alexandra Zaïnal
Original concept : Baudouin d'Aumeries
Technical & hardware support : Manuel Goepfert
Assistance : Marc-Olivier Méhu




SOURCES & CREDITS :

   NOAA